Atlantic, Pennsylvania
Current Conditions -  °F | °C
As of 2:53 AM on Thursday 27 Nov 2014 (Local Time) from KGKJ Reporting Station
Haze Haze  
Wind Chill: -1°   Ceiling: 900
Heat Index: -1°   Visibility: 5mi
Dew Point: -2°   Wind: 3mph
Humidity: 92%   Direction: 280°W
Pressure: 29.96"   Gusts: NA
Location:  41.5°N, 80.33°W
Report Text: KGKJ 270753Z AUTO 28003KT 5SM BR SCT006 BKN009 OVC029 M01/M02 A2996 RMK AO2 SLP159 T10061017 TSNO
Loading
Personal Weather Stations






























Interactive Weather Map New forecast layout! Learn more

10-Day Weather Forecast

Advertisements
Track Severe Weather on mobile